createdAt,value
2023-02-11T08:11:12.898Z,15.98
2023-02-11T08:13:41.723Z,11.38
2023-02-11T08:16:21.399Z,12.77
2023-02-11T08:18:51.377Z,13.98
2023-02-11T08:21:21.035Z,16.23
2023-02-11T08:23:50.722Z,20.35
2023-02-11T08:26:23.363Z,16.58
2023-02-11T08:28:53.149Z,12.60
2023-02-11T08:31:24.021Z,13.23
2023-02-11T08:33:54.399Z,14.60
2023-02-11T08:36:25.006Z,14.32
2023-02-11T08:39:05.652Z,10.35
2023-02-11T08:41:42.556Z,10.68
2023-02-11T08:44:11.448Z,9.57
2023-02-11T08:46:40.202Z,9.95
2023-02-11T08:49:08.798Z,11.63
2023-02-11T08:51:37.599Z,9.77
2023-02-11T08:54:09.618Z,10.38
2023-02-11T08:56:39.390Z,10.90
2023-02-11T08:59:10.432Z,10.27
2023-02-11T09:01:39.203Z,10.13
2023-02-11T09:04:08.189Z,8.82
2023-02-11T09:06:36.876Z,10.45
2023-02-11T09:09:05.766Z,10.30
2023-02-11T09:11:36.195Z,9.65
2023-02-11T09:14:05.598Z,8.63
2023-02-11T09:16:37.685Z,9.07
2023-02-11T09:19:07.202Z,9.65
2023-02-11T09:21:35.774Z,8.10
2023-02-11T09:24:04.420Z,9.13
2023-02-11T09:26:34.757Z,8.30
2023-02-11T09:29:04.272Z,7.85
2023-02-11T09:31:35.992Z,8.02
2023-02-11T09:34:07.090Z,7.03
2023-02-11T09:36:38.653Z,9.80
2023-02-11T09:39:09.330Z,10.25
2023-02-11T09:41:50.708Z,8.52
2023-02-11T09:44:23.402Z,9.68
2023-02-11T09:46:58.055Z,7.55
2023-02-11T09:49:32.410Z,8.55
2023-02-11T09:52:06.212Z,8.40
2023-02-11T09:54:41.799Z,8.02
2023-02-11T09:57:26.507Z,7.32
2023-02-11T09:59:57.958Z,7.60
2023-02-11T10:02:38.252Z,8.35
2023-02-11T10:05:25.851Z,8.52
2023-02-11T10:08:05.694Z,8.35
2023-02-11T10:10:49.782Z,7.80
2023-02-11T10:13:32.329Z,8.02
2023-02-11T10:16:10.801Z,8.95
2023-02-11T10:18:55.242Z,9.07
2023-02-11T10:21:34.092Z,9.43
2023-02-11T10:24:05.949Z,10.27
2023-02-11T10:26:35.812Z,9.20
2023-02-11T10:29:14.068Z,9.93
2023-02-11T10:31:46.542Z,9.10
2023-02-11T10:34:16.936Z,9.98
2023-02-11T10:36:46.536Z,9.40
2023-02-11T10:39:17.791Z,8.38
2023-02-11T10:41:48.751Z,9.10
2023-02-11T10:44:27.577Z,10.02
2023-02-11T10:46:57.736Z,9.43
2023-02-11T10:49:40.052Z,10.73
2023-02-11T10:52:23.989Z,9.30
2023-02-11T10:55:01.972Z,9.25
2023-02-11T10:57:35.099Z,9.50
2023-02-11T11:00:10.005Z,10.07
2023-02-11T11:02:44.204Z,11.50
2023-02-11T11:05:20.611Z,10.85
2023-02-11T11:07:57.452Z,11.13
2023-02-11T11:10:43.369Z,12.32
2023-02-11T11:13:29.842Z,11.30
2023-02-11T11:16:18.892Z,12.63
2023-02-11T11:18:49.283Z,12.38
2023-02-11T11:21:21.814Z,12.68
2023-02-11T11:23:53.891Z,12.40
2023-02-11T11:26:23.370Z,12.27
2023-02-11T11:29:04.046Z,11.02
2023-02-11T11:31:35.943Z,12.38
2023-02-11T11:34:22.913Z,11.52
2023-02-11T11:36:53.267Z,12.60
2023-02-11T11:39:25.911Z,12.50
2023-02-11T11:41:59.533Z,14.05
2023-02-11T11:44:31.326Z,13.43
2023-02-11T11:47:26.336Z,13.00
2023-02-11T11:50:27.556Z,12.27
2023-02-11T11:53:04.256Z,12.63
2023-02-11T11:55:37.732Z,12.98
2023-02-11T11:58:07.092Z,13.45
2023-02-11T12:00:43.129Z,12.70
2023-02-11T12:03:38.985Z,14.20
2023-02-11T12:06:21.046Z,13.90
2023-02-11T12:09:02.086Z,14.20
2023-02-11T12:11:39.803Z,14.98
2023-02-11T12:14:18.723Z,14.77
2023-02-11T12:16:58.606Z,14.98
2023-02-11T12:19:46.755Z,13.05
2023-02-11T12:22:25.875Z,14.13
2023-02-11T12:25:06.292Z,14.60
2023-02-11T12:27:46.538Z,15.38
2023-02-11T12:30:24.131Z,14.95
2023-02-11T12:33:05.054Z,13.93
2023-02-11T12:35:45.174Z,14.85
2023-02-11T12:38:29.253Z,15.15
2023-02-11T12:41:11.305Z,15.05
2023-02-11T12:43:40.909Z,14.75
2023-02-11T12:46:36.929Z,15.13
2023-02-11T12:49:28.548Z,14.70
2023-02-11T12:52:18.206Z,15.05
2023-02-11T12:54:55.731Z,13.75
2023-02-11T12:57:28.460Z,14.85
2023-02-11T13:00:02.045Z,14.82
2023-02-11T13:02:37.567Z,15.00
2023-02-11T13:05:10.337Z,14.52
2023-02-11T13:07:45.649Z,13.45
2023-02-11T13:10:27.510Z,14.90
2023-02-11T13:13:18.013Z,15.27
2023-02-11T13:15:51.448Z,13.75
2023-02-11T13:18:46.128Z,14.57
2023-02-11T13:21:39.867Z,13.05
2023-02-11T13:24:20.384Z,14.05
2023-02-11T13:26:59.237Z,14.43
2023-02-11T13:29:35.257Z,15.32
2023-02-11T13:32:12.179Z,14.10
2023-02-11T13:34:58.783Z,15.20
2023-02-11T13:37:29.901Z,16.15
2023-02-11T13:40:00.890Z,13.23
2023-02-11T13:42:31.005Z,14.07
2023-02-11T13:45:01.382Z,15.52
2023-02-11T13:47:33.730Z,13.55
2023-02-11T13:50:07.065Z,15.27
2023-02-11T13:52:38.726Z,15.95
2023-02-11T13:55:21.714Z,15.07
2023-02-11T13:58:18.654Z,15.15
2023-02-11T14:00:51.244Z,16.38
2023-02-11T14:03:47.770Z,16.15
2023-02-11T14:09:25.559Z,16.33
2023-02-11T14:11:57.373Z,15.90
2023-02-11T14:14:27.486Z,16.67
2023-02-11T14:17:22.566Z,14.68
2023-02-11T14:19:53.067Z,15.55
2023-02-11T14:22:26.172Z,16.60
2023-02-11T14:24:57.999Z,16.00
2023-02-11T14:27:37.844Z,16.77
2023-02-11T14:30:31.175Z,17.00
2023-02-11T14:33:26.459Z,16.55
2023-02-11T14:36:07.021Z,16.13
2023-02-11T14:38:44.656Z,15.93
2023-02-11T14:41:22.949Z,15.55
2023-02-11T14:43:54.329Z,15.90
2023-02-11T14:46:25.245Z,17.63
2023-02-11T14:48:57.482Z,17.75
2023-02-11T14:51:31.484Z,16.92
2023-02-11T14:54:04.530Z,17.77
2023-02-11T14:56:34.596Z,16.40
2023-02-11T14:59:03.922Z,15.50
2023-02-11T15:01:35.491Z,17.02
2023-02-11T15:04:05.523Z,16.73
2023-02-11T15:06:38.449Z,16.02
2023-02-11T15:09:15.449Z,15.85
2023-02-11T15:11:48.039Z,15.52
2023-02-11T15:14:24.383Z,17.65
2023-02-11T15:16:55.133Z,16.40
2023-02-11T15:19:27.043Z,16.85
2023-02-11T15:21:57.242Z,15.20
2023-02-11T15:24:28.779Z,15.63
2023-02-11T15:26:58.878Z,16.48
2023-02-11T15:29:28.213Z,17.55
2023-02-11T15:32:08.411Z,16.40
2023-02-11T15:34:37.882Z,16.88
2023-02-11T15:37:08.525Z,16.88
2023-02-11T15:39:41.178Z,18.27
2023-02-11T15:42:24.310Z,17.33
2023-02-11T15:45:10.454Z,17.92
2023-02-11T15:47:39.894Z,17.67
2023-02-11T15:50:09.842Z,15.20
2023-02-11T15:52:41.908Z,16.10
2023-02-11T15:55:15.668Z,16.13
2023-02-11T15:57:56.541Z,15.43
2023-02-11T16:00:36.563Z,15.52
2023-02-11T16:03:05.899Z,15.45
2023-02-11T16:05:36.994Z,15.50
2023-02-11T16:08:24.607Z,16.73
2023-02-11T16:10:58.922Z,15.38
2023-02-11T16:13:30.826Z,17.05
2023-02-11T16:16:05.249Z,15.88
2023-02-11T16:18:39.351Z,14.82
2023-02-11T16:21:16.258Z,14.83
2023-02-11T16:23:52.775Z,15.10
2023-02-11T16:26:29.652Z,13.77
2023-02-11T16:29:12.031Z,14.43
2023-02-11T16:31:42.426Z,11.85
2023-02-11T16:34:19.621Z,10.88
2023-02-11T16:36:49.089Z,10.98
2023-02-11T16:39:21.804Z,11.27
2023-02-11T16:41:51.871Z,10.50
2023-02-11T16:44:20.456Z,10.15
2023-02-11T16:46:49.599Z,11.77
2023-02-11T16:49:22.467Z,12.05
2023-02-11T16:51:53.165Z,11.45
2023-02-11T16:54:23.068Z,13.85
2023-02-11T16:56:52.016Z,11.80
2023-02-11T16:59:21.257Z,10.75
2023-02-11T17:01:51.427Z,13.20
2023-02-11T17:04:25.141Z,13.05
2023-02-11T17:06:55.959Z,13.48
2023-02-11T17:09:30.798Z,14.10
2023-02-11T17:12:00.455Z,14.68
2023-02-11T17:14:29.258Z,14.95
2023-02-11T17:16:58.460Z,15.68
2023-02-11T17:19:27.067Z,15.07
2023-02-11T17:21:55.806Z,16.25
2023-02-11T17:24:24.638Z,17.38
2023-02-11T17:26:55.022Z,17.95
2023-02-11T17:29:25.701Z,19.58
2023-02-11T17:31:54.699Z,17.95
2023-02-11T17:34:24.467Z,18.52
2023-02-11T17:36:53.241Z,18.90
2023-02-11T17:39:22.215Z,18.42
2023-02-11T17:41:50.958Z,18.45
2023-02-11T17:44:21.084Z,18.77
2023-02-11T17:46:49.679Z,18.25
2023-02-11T17:49:18.256Z,17.73
2023-02-11T17:51:46.883Z,17.25
2023-02-11T17:54:17.065Z,16.88
2023-02-11T17:56:49.288Z,17.33
2023-02-11T17:59:20.376Z,17.30
2023-02-11T18:01:49.093Z,17.17
2023-02-11T18:04:19.677Z,16.48
2023-02-11T18:06:48.686Z,17.33
2023-02-11T18:09:17.447Z,16.17
2023-02-11T18:11:46.203Z,17.52
2023-02-11T18:14:14.924Z,20.15
2023-02-11T18:16:46.154Z,19.55
2023-02-11T18:19:15.478Z,20.83
2023-02-11T18:21:44.199Z,19.98
2023-02-11T18:24:12.882Z,20.38
2023-02-11T18:26:41.885Z,18.73
2023-02-11T18:29:10.737Z,17.08
2023-02-11T18:31:39.748Z,17.75
2023-02-11T18:34:10.832Z,17.85
2023-02-11T18:36:39.713Z,18.10
2023-02-11T18:39:08.350Z,17.88
2023-02-11T18:41:36.941Z,18.73
2023-02-11T18:44:05.848Z,17.50
2023-02-11T18:46:35.100Z,18.42
2023-02-11T18:49:03.772Z,18.17
2023-02-11T18:51:33.853Z,15.60
2023-02-11T18:54:02.494Z,17.42
2023-02-11T18:56:31.175Z,16.70
2023-02-11T18:59:01.522Z,16.60
2023-02-11T19:01:32.064Z,15.70
2023-02-11T19:04:03.086Z,15.93
2023-02-11T19:06:34.793Z,15.98
2023-02-11T19:09:06.410Z,16.45
2023-02-11T19:11:54.560Z,16.27
2023-02-11T19:14:24.490Z,14.90
2023-02-11T19:16:57.152Z,16.63
2023-02-11T19:19:29.248Z,14.65
2023-02-11T19:22:00.488Z,13.57
2023-02-11T19:24:30.547Z,14.82
2023-02-11T19:27:01.495Z,14.02
2023-02-11T19:29:32.337Z,14.65
2023-02-11T19:32:01.194Z,13.85
2023-02-11T19:34:30.011Z,14.63
2023-02-11T19:37:01.829Z,14.82
2023-02-11T19:39:30.390Z,14.18
2023-02-11T19:41:59.253Z,14.18
2023-02-11T19:44:27.977Z,14.40
2023-02-11T19:46:56.911Z,14.02
2023-02-11T19:49:26.626Z,14.00
2023-02-11T19:51:58.348Z,14.35
2023-02-11T19:54:29.538Z,15.40
2023-02-11T19:56:58.860Z,15.45
2023-02-11T19:59:27.758Z,14.50
2023-02-11T20:01:57.829Z,13.40
2023-02-11T20:04:26.582Z,13.23
2023-02-11T20:06:55.217Z,13.90
2023-02-11T20:09:23.787Z,13.25
2023-02-11T20:11:53.897Z,13.57
2023-02-11T20:14:22.737Z,13.50
2023-02-11T20:16:51.538Z,12.43
2023-02-11T20:19:22.059Z,12.63
2023-02-11T20:21:53.936Z,12.65
2023-02-11T20:24:23.863Z,12.98
2023-02-11T20:26:56.211Z,12.82
2023-02-11T20:29:26.662Z,12.07
2023-02-11T20:31:56.017Z,12.77
2023-02-11T20:34:25.461Z,13.43
2023-02-11T20:36:55.046Z,13.20
2023-02-11T20:39:25.416Z,12.57
2023-02-11T20:41:56.720Z,12.13
2023-02-11T20:44:25.939Z,12.68
2023-02-11T20:46:55.182Z,12.90
2023-02-11T20:49:25.426Z,13.05
2023-02-11T20:51:54.563Z,13.45
2023-02-11T20:54:24.607Z,12.30
2023-02-11T20:56:56.219Z,13.02
2023-02-11T20:59:25.091Z,12.48
2023-02-11T21:01:55.647Z,13.10
2023-02-11T21:04:26.200Z,11.88
2023-02-11T21:06:57.325Z,12.48
2023-02-11T21:09:28.172Z,11.88
2023-02-11T21:11:58.369Z,12.90
2023-02-11T21:14:28.167Z,12.48
2023-02-11T21:16:56.857Z,13.35
2023-02-11T21:19:25.616Z,12.95
2023-02-11T21:21:55.386Z,12.50
2023-02-11T21:24:24.169Z,12.70
2023-02-11T21:26:53.022Z,12.43
2023-02-11T21:29:23.499Z,12.00
2023-02-11T21:31:52.393Z,12.23
2023-02-11T21:34:21.219Z,11.57
2023-02-11T21:36:51.362Z,11.30
2023-02-11T21:39:20.626Z,10.95
2023-02-11T21:41:49.294Z,9.68
2023-02-11T21:44:18.023Z,11.45
2023-02-11T21:46:48.185Z,10.63
2023-02-11T21:49:16.813Z,10.30
2023-02-11T21:51:45.492Z,10.00
2023-02-11T21:54:14.013Z,10.52
2023-02-11T21:56:42.844Z,10.68
2023-02-11T21:59:14.209Z,11.10
2023-02-11T22:01:42.943Z,11.27
2023-02-11T22:04:13.323Z,10.70
2023-02-11T22:06:41.979Z,11.38
2023-02-11T22:09:11.292Z,10.80
2023-02-11T22:11:40.798Z,11.40
2023-02-11T22:14:09.540Z,12.50
2023-02-11T22:16:38.435Z,11.80
2023-02-11T22:19:07.679Z,11.50
2023-02-11T22:21:37.935Z,11.70
2023-02-11T22:24:07.271Z,11.73
2023-02-11T22:26:35.977Z,10.68
2023-02-11T22:29:04.654Z,10.27
2023-02-11T22:31:35.830Z,11.10
2023-02-11T22:34:05.445Z,10.50
2023-02-11T22:36:35.919Z,9.93
2023-02-11T22:39:08.366Z,9.95
2023-02-11T22:41:38.454Z,9.73
2023-02-11T22:44:07.102Z,10.10
2023-02-11T22:46:36.316Z,10.07
2023-02-11T22:49:04.964Z,10.07
2023-02-11T22:51:33.764Z,11.35
2023-02-11T22:54:03.848Z,10.52
2023-02-11T22:56:35.779Z,11.82
2023-02-11T22:59:06.407Z,10.82
2023-02-11T23:01:35.904Z,11.43
2023-02-11T23:04:06.632Z,10.10
2023-02-11T23:06:36.091Z,9.23
2023-02-11T23:09:05.496Z,10.75
2023-02-11T23:11:36.329Z,9.63
2023-02-11T23:14:05.526Z,10.30
2023-02-11T23:16:35.969Z,11.60
2023-02-11T23:19:06.903Z,10.73
2023-02-11T23:21:37.927Z,10.68
2023-02-11T23:24:09.305Z,10.35
